Time;durP1;ratioP1;P1;durP2;ratioP2;P2;SDS_P1;SDS_P2;PMS_P1;PMS_P2;Temp;Humidity;BMP_temperature;BMP_pressure;BME280_temperature;BME280_humidity;BME280_pressure;Samples;Min_cycle;Max_cycle;Signal;HPM_P1;HPM_P2
2020/12/05 00:01:52;;;;;;;26.90;17.30;;;5.10;1.00;;;;;;5050578;28;20416;-60
2020/12/05 00:04:17;;;;;;;21.60;16.10;;;5.20;1.00;;;;;;5057026;28;20231;-61
2020/12/05 00:06:43;;;;;;;24.63;16.77;;;5.20;1.00;;;;;;5069792;28;20181;-61
2020/12/05 00:09:09;;;;;;;25.47;16.83;;;5.20;1.00;;;;;;5069627;28;20169;-60
2020/12/05 00:11:35;;;;;;;22.33;15.70;;;5.20;1.00;;;;;;5052507;28;20205;-60
2020/12/05 00:14:01;;;;;;;23.87;16.00;;;5.20;1.00;;;;;;5060433;28;20653;-61
2020/12/05 00:16:26;;;;;;;26.30;16.37;;;5.20;1.00;;;;;;5063654;28;20182;-60
2020/12/05 00:18:54;;;;;;;22.93;16.83;;;5.20;1.00;;;;;;5066154;28;20636;-61
2020/12/05 00:21:21;;;;;;;23.45;15.05;;;5.20;1.00;;;;;;5060659;28;20629;-60
2020/12/05 00:23:46;;;;;;;20.05;15.05;;;5.30;1.00;;;;;;5062420;28;20192;-61
2020/12/05 00:26:16;;;;;;;21.83;15.63;;;5.30;1.00;;;;;;5058945;28;20206;-61
2020/12/05 00:28:42;;;;;;;22.90;15.18;;;5.30;1.00;;;;;;5054896;28;20178;-61
2020/12/05 00:31:08;;;;;;;21.15;15.68;;;5.30;1.00;;;;;;5068326;28;20299;-61
2020/12/05 00:33:34;;;;;;;20.88;15.98;;;5.40;1.00;;;;;;5063347;28;20285;-61
2020/12/05 00:36:00;;;;;;;23.08;16.00;;;5.40;1.00;;;;;;5069536;28;20200;-61
2020/12/05 00:38:26;;;;;;;23.40;15.37;;;5.40;1.00;;;;;;5069747;28;20188;-61
2020/12/05 00:40:51;;;;;;;23.03;15.23;;;5.40;1.00;;;;;;5068794;28;20294;-61
2020/12/05 00:43:17;;;;;;;23.07;15.90;;;5.30;1.00;;;;;;5068742;28;20439;-64
2020/12/05 00:45:43;;;;;;;21.87;15.93;;;5.40;1.00;;;;;;5068894;28;20224;-61
2020/12/05 00:48:09;;;;;;;21.70;15.23;;;5.50;99.90;;;;;;5052169;28;20436;-61
2020/12/05 00:50:35;;;;;;;21.53;14.63;;;5.40;99.90;;;;;;5062024;28;20200;-60
2020/12/05 00:53:00;;;;;;;22.97;15.20;;;5.40;1.00;;;;;;5067543;28;20627;-61
2020/12/05 00:55:26;;;;;;;22.47;15.80;;;5.40;1.00;;;;;;5069063;28;20212;-61
2020/12/05 00:57:51;;;;;;;20.93;15.10;;;5.40;99.90;;;;;;5051617;28;20194;-61
2020/12/05 01:00:18;;;;;;;19.53;14.57;;;5.40;99.90;;;;;;5064740;28;20215;-61
2020/12/05 01:02:45;;;;;;;19.20;15.18;;;5.40;1.00;;;;;;5063513;28;20178;-61
2020/12/05 01:05:10;;;;;;;23.55;14.93;;;5.50;1.00;;;;;;5065513;28;20201;-61
2020/12/05 01:07:36;;;;;;;19.63;14.37;;;5.50;1.00;;;;;;5068269;28;20315;-61
2020/12/05 01:10:03;;;;;;;20.77;14.07;;;5.50;99.90;;;;;;5069703;28;20184;-60
2020/12/05 01:12:30;;;;;;;20.60;14.50;;;5.50;99.90;;;;;;5068942;28;20262;-61
2020/12/05 01:15:01;;;;;;;20.77;13.95;;;5.50;99.90;;;;;;5069301;28;20181;-61
2020/12/05 01:17:27;;;;;;;20.77;14.20;;;5.60;99.90;;;;;;5065489;28;20193;-61
2020/12/05 01:19:56;;;;;;;22.08;14.93;;;5.60;1.00;;;;;;5067685;28;20181;-61
2020/12/05 01:22:24;;;;;;;20.95;14.60;;;5.60;99.90;;;;;;5067963;28;20188;-60
2020/12/05 01:24:51;;;;;;;20.35;14.35;;;5.60;99.90;;;;;;5060291;28;20219;-60
2020/12/05 01:27:17;;;;;;;20.85;15.18;;;5.60;99.90;;;;;;5049431;28;20185;-60
2020/12/05 01:29:44;;;;;;;18.85;13.40;;;5.60;1.00;;;;;;5064122;28;20185;-59
2020/12/05 01:32:09;;;;;;;21.92;15.30;;;5.60;99.90;;;;;;5061342;28;20185;-60
2020/12/05 01:34:35;;;;;;;18.00;14.03;;;5.60;99.90;;;;;;5055030;28;20189;-60
2020/12/05 01:37:01;;;;;;;23.03;15.50;;;5.60;1.00;;;;;;5058528;28;20185;-60
2020/12/05 01:39:27;;;;;;;20.53;15.07;;;5.60;99.90;;;;;;5069113;28;20428;-61
2020/12/05 01:41:52;;;;;;;21.47;14.50;;;5.60;1.00;;;;;;5072074;28;20272;-61
2020/12/05 01:44:18;;;;;;;20.70;14.63;;;5.60;1.00;;;;;;5061387;28;20580;-61
2020/12/05 01:46:44;;;;;;;20.43;14.47;;;5.60;1.00;;;;;;5063075;28;20192;-61
2020/12/05 01:49:17;;;;;;;20.83;15.07;;;5.60;1.00;;;;;;5069024;28;20177;-61
2020/12/05 01:51:44;;;;;;;22.65;15.13;;;5.60;1.00;;;;;;5058351;28;20181;-61
2020/12/05 01:54:10;;;;;;;19.02;14.93;;;5.60;1.00;;;;;;5066155;28;20185;-60
2020/12/05 01:56:36;;;;;;;20.80;14.80;;;5.60;1.00;;;;;;5063699;28;20180;-61
2020/12/05 01:59:02;;;;;;;20.20;14.55;;;5.60;1.00;;;;;;5058046;28;20636;-61
2020/12/05 02:01:29;;;;;;;22.35;14.30;;;5.60;1.00;;;;;;5065591;28;20208;-61
2020/12/05 02:03:58;;;;;;;21.00;14.45;;;5.70;1.00;;;;;;5060211;28;20186;-61
2020/12/05 02:06:28;;;;;;;19.15;14.05;;;5.70;1.00;;;;;;5064719;28;20583;-61
2020/12/05 02:08:56;;;;;;;21.92;14.27;;;5.70;99.90;;;;;;5068301;28;20192;-61
2020/12/05 02:11:27;;;;;;;18.73;13.88;;;5.80;99.90;;;;;;5060376;28;20201;-61
2020/12/05 02:13:58;;;;;;;18.20;13.80;;;5.80;99.90;;;;;;5068735;28;20166;-61
2020/12/05 02:16:24;;;;;;;19.60;13.10;;;5.80;99.90;;;;;;5067737;28;20190;-61
2020/12/05 02:18:52;;;;;;;21.13;13.77;;;5.80;99.90;;;;;;5072846;28;20204;-61
2020/12/05 02:21:20;;;;;;;18.40;13.90;;;5.80;99.90;;;;;;5063246;28;20181;-61
2020/12/05 02:23:46;;;;;;;19.42;14.35;;;5.80;99.90;;;;;;5064194;28;20199;-61
2020/12/05 02:26:13;;;;;;;19.88;13.95;;;5.80;99.90;;;;;;5067049;28;20201;-61
2020/12/05 02:28:39;;;;;;;17.15;13.02;;;5.90;99.90;;;;;;5058400;28;20185;-61
2020/12/05 02:31:07;;;;;;;17.15;13.05;;;5.90;99.90;;;;;;5064209;28;20196;-61
2020/12/05 02:33:32;;;;;;;18.50;13.98;;;6.00;99.90;;;;;;5070660;28;20682;-61
2020/12/05 02:35:58;;;;;;;19.30;13.57;;;6.00;99.90;;;;;;5072059;28;20193;-61
2020/12/05 02:38:39;;;;;;;18.70;13.50;;;6.00;99.90;;;;;;5069983;28;20235;-61
2020/12/05 02:41:04;;;;;;;18.35;12.60;;;6.00;99.90;;;;;;5060736;28;20227;-61
2020/12/05 02:43:33;;;;;;;17.13;13.13;;;6.00;99.90;;;;;;5069440;28;20271;-62
2020/12/05 02:45:58;;;;;;;19.05;13.27;;;6.00;99.90;;;;;;5072299;28;20228;-61
2020/12/05 02:48:24;;;;;;;17.17;13.37;;;6.00;99.90;;;;;;5069292;28;20181;-61
2020/12/05 02:50:50;;;;;;;20.23;13.57;;;6.00;99.90;;;;;;5068175;28;21263;-61
2020/12/05 02:53:15;;;;;;;19.87;13.80;;;6.00;99.90;;;;;;5071180;28;20635;-60
2020/12/05 02:55:41;;;;;;;16.03;12.70;;;6.00;99.90;;;;;;5067672;28;20181;-60
2020/12/05 02:58:07;;;;;;;19.20;12.77;;;6.00;99.90;;;;;;5064211;28;20678;-60
2020/12/05 03:00:32;;;;;;;14.73;12.67;;;6.10;99.90;;;;;;5065349;28;20191;-60
2020/12/05 03:02:58;;;;;;;16.43;12.83;;;6.10;99.90;;;;;;5071487;28;20620;-60
2020/12/05 03:05:23;;;;;;;20.93;13.70;;;6.20;99.90;;;;;;5069673;28;20639;-58
2020/12/05 03:07:49;;;;;;;16.63;12.70;;;6.20;99.90;;;;;;5057809;28;20186;-60
2020/12/05 03:10:15;;;;;;;18.57;13.47;;;6.10;99.90;;;;;;5051858;28;20246;-60
2020/12/05 03:12:41;;;;;;;17.83;13.02;;;6.20;99.90;;;;;;5065857;28;20181;-60
2020/12/05 03:15:07;;;;;;;17.87;12.80;;;6.30;99.90;;;;;;5054765;28;20201;-60
2020/12/05 03:17:33;;;;;;;18.27;13.27;;;6.20;99.90;;;;;;5063036;28;20439;-60
2020/12/05 03:19:58;;;;;;;21.83;13.40;;;6.30;99.90;;;;;;5066227;28;21270;-60
2020/12/05 03:22:24;;;;;;;16.20;12.87;;;6.30;99.90;;;;;;5068453;28;20181;-59
2020/12/05 03:24:50;;;;;;;16.20;12.60;;;6.30;99.90;;;;;;5067070;28;20196;-60
2020/12/05 03:27:16;;;;;;;19.23;13.50;;;6.30;99.90;;;;;;5057414;28;20250;-60
2020/12/05 03:29:41;;;;;;;15.70;12.20;;;6.30;99.90;;;;;;5068129;28;20439;-60
2020/12/05 03:32:17;;;;;;;16.13;12.17;;;6.30;99.90;;;;;;5060554;28;20184;-61
2020/12/05 03:34:43;;;;;;;17.73;12.77;;;6.30;99.90;;;;;;5057753;28;20192;-62
2020/12/05 03:37:09;;;;;;;17.25;12.63;;;6.30;99.90;;;;;;5064391;28;20181;-60
2020/12/05 03:39:35;;;;;;;16.10;12.52;;;6.30;99.90;;;;;;5070429;28;20197;-61
2020/12/05 03:42:01;;;;;;;18.67;13.40;;;6.30;99.90;;;;;;5070191;28;20229;-61
2020/12/05 03:44:26;;;;;;;15.23;12.60;;;6.30;1.00;;;;;;5070367;28;20256;-60
2020/12/05 03:46:52;;;;;;;18.70;13.63;;;6.20;1.00;;;;;;5062790;28;20303;-61
2020/12/05 03:49:18;;;;;;;18.67;12.70;;;6.20;1.00;;;;;;5069571;28;20561;-61
2020/12/05 03:51:43;;;;;;;16.57;12.53;;;6.30;1.00;;;;;;5055294;28;20281;-61
2020/12/05 03:54:09;;;;;;;18.37;14.07;;;6.30;1.00;;;;;;5056035;28;20256;-60
2020/12/05 03:56:34;;;;;;;18.57;13.67;;;6.30;1.00;;;;;;5060959;28;20593;-61
2020/12/05 03:59:00;;;;;;;17.43;12.60;;;6.20;1.00;;;;;;5067706;28;20184;-61
2020/12/05 04:01:26;;;;;;;17.87;12.83;;;6.30;1.00;;;;;;5066020;28;20269;-60
2020/12/05 04:03:51;;;;;;;15.23;11.93;;;6.30;1.00;;;;;;5061655;28;20288;-60
2020/12/05 04:06:17;;;;;;;18.37;13.10;;;6.30;1.00;;;;;;5069724;28;20541;-60
2020/12/05 04:08:43;;;;;;;18.17;13.00;;;6.30;1.00;;;;;;5069995;28;20250;-59
2020/12/05 04:11:08;;;;;;;16.80;12.40;;;6.30;1.00;;;;;;5069987;28;20233;-60
2020/12/05 04:13:35;;;;;;;16.07;12.43;;;6.40;1.00;;;;;;5052605;28;20232;-60
2020/12/05 04:16:01;;;;;;;16.67;12.65;;;6.30;1.00;;;;;;5063318;28;20194;-60
2020/12/05 04:18:26;;;;;;;17.97;13.37;;;6.30;1.00;;;;;;5078448;28;20189;-59
2020/12/05 04:20:52;;;;;;;17.37;13.00;;;6.30;1.00;;;;;;5064431;28;20997;-60
2020/12/05 04:23:18;;;;;;;15.47;12.67;;;6.30;1.00;;;;;;5063816;28;20996;-60
2020/12/05 04:25:43;;;;;;;15.10;10.83;;;6.30;1.00;;;;;;5063899;28;20212;-60
2020/12/05 04:28:09;;;;;;;14.90;12.43;;;6.30;1.00;;;;;;5055507;28;20177;-60
2020/12/05 04:30:34;;;;;;;16.27;11.60;;;6.40;1.00;;;;;;5065350;28;20197;-61
2020/12/05 04:33:00;;;;;;;18.80;13.23;;;6.40;1.00;;;;;;5059599;28;20185;-60
2020/12/05 04:35:26;;;;;;;15.70;11.73;;;6.50;1.00;;;;;;5059128;28;20193;-60
2020/12/05 04:37:52;;;;;;;13.20;11.20;;;6.50;1.00;;;;;;5063163;28;20438;-60
2020/12/05 04:40:18;;;;;;;14.63;11.77;;;6.50;1.00;;;;;;5069395;28;20474;-60
2020/12/05 04:42:48;;;;;;;14.00;11.60;;;6.60;99.90;;;;;;5063599;28;20271;-60
2020/12/05 04:45:16;;;;;;;12.15;9.90;;;6.70;99.90;;;;;;5068465;28;20505;-59
2020/12/05 04:47:43;;;;;;;16.10;11.82;;;6.80;99.90;;;;;;5068822;28;20277;-59
2020/12/05 04:50:09;;;;;;;13.82;10.40;;;6.90;99.90;;;;;;5064549;28;20177;-59
2020/12/05 04:52:41;;;;;;;18.13;12.10;;;6.90;99.90;;;;;;5063989;28;20236;-59
2020/12/05 04:55:07;;;;;;;14.35;11.95;;;6.90;99.90;;;;;;5063711;28;20271;-61
2020/12/05 04:57:44;;;;;;;15.95;11.95;;;6.90;99.90;;;;;;5055266;28;20229;-60
2020/12/05 05:00:10;;;;;;;15.77;11.80;;;6.80;99.90;;;;;;5049316;28;20181;-60
2020/12/05 05:02:40;;;;;;;13.43;10.90;;;6.80;99.90;;;;;;5066263;28;20677;-59
2020/12/05 05:05:09;;;;;;;15.43;12.75;;;6.80;99.90;;;;;;5067534;28;20628;-60
2020/12/05 05:07:45;;;;;;;15.40;12.05;;;6.80;1.00;;;;;;5060389;28;20256;-60
2020/12/05 05:10:17;;;;;;;15.07;12.25;;;6.80;1.00;;;;;;5067705;28;20718;-60
2020/12/05 05:12:42;;;;;;;16.50;11.70;;;6.70;1.00;;;;;;5068763;28;20220;-60
2020/12/05 05:15:37;;;;;;;16.63;12.07;;;6.80;1.00;;;;;;5069650;28;20213;-60
2020/12/05 05:18:04;;;;;;;16.52;12.88;;;6.80;1.00;;;;;;5059527;28;20189;-59
2020/12/05 05:20:35;;;;;;;17.60;12.30;;;6.80;1.00;;;;;;5065432;28;20655;-59
2020/12/05 05:23:19;;;;;;;15.23;12.27;;;6.80;1.00;;;;;;5055706;28;20187;-59
2020/12/05 05:25:49;;;;;;;16.38;12.40;;;6.80;1.00;;;;;;5065959;28;20216;-59
2020/12/05 05:28:22;;;;;;;16.98;12.30;;;6.90;1.00;;;;;;5068563;28;20223;-60
2020/12/05 05:33:43;;;;;;;17.70;12.65;;;6.90;1.00;;;;;;5067118;28;20188;-59
2020/12/05 05:36:29;;;;;;;16.50;12.48;;;6.80;1.00;;;;;;5053577;28;20230;-60
2020/12/05 05:38:58;;;;;;;18.60;12.75;;;6.90;1.00;;;;;;5065632;28;20181;-60
2020/12/05 05:41:24;;;;;;;16.85;12.93;;;6.90;1.00;;;;;;5066806;28;20236;-60
2020/12/05 05:43:55;;;;;;;14.02;11.73;;;6.90;1.00;;;;;;5062255;28;20603;-60
2020/12/05 05:46:29;;;;;;;18.10;12.85;;;7.00;1.00;;;;;;5049134;28;20209;-60
2020/12/05 05:48:57;;;;;;;16.35;11.88;;;7.00;1.00;;;;;;5052682;28;20524;-60
2020/12/05 05:51:45;;;;;;;16.80;12.50;;;7.00;1.00;;;;;;5064111;28;20359;-60
2020/12/05 05:54:15;;;;;;;18.10;12.75;;;7.00;1.00;;;;;;5045681;28;20572;-60
2020/12/05 05:56:59;;;;;;;15.52;11.98;;;7.00;1.00;;;;;;5052201;28;20644;-59
2020/12/05 05:59:33;;;;;;;18.55;13.80;;;7.00;1.00;;;;;;5052505;28;20181;-60
2020/12/05 06:02:00;;;;;;;17.48;13.27;;;7.00;1.00;;;;;;5068647;28;20189;-59
2020/12/05 06:04:28;;;;;;;16.58;12.52;;;7.00;1.00;;;;;;5069938;28;20181;-60
2020/12/05 06:06:59;;;;;;;16.60;12.70;;;7.10;1.00;;;;;;5071617;28;20628;-60
2020/12/05 06:09:51;;;;;;;15.02;11.43;;;7.10;1.00;;;;;;5069555;28;20185;-61
2020/12/05 06:12:28;;;;;;;16.13;12.55;;;7.20;1.00;;;;;;5048168;28;20228;-61
2020/12/05 06:14:55;;;;;;;16.13;12.27;;;7.20;1.00;;;;;;5067484;28;20247;-61
2020/12/05 06:17:25;;;;;;;18.73;12.20;;;7.20;1.00;;;;;;5073104;28;20204;-61
2020/12/05 06:19:52;;;;;;;14.93;12.43;;;7.30;1.00;;;;;;5076455;28;20205;-60
2020/12/05 06:22:40;;;;;;;13.55;11.50;;;7.30;1.00;;;;;;5070721;28;20643;-60
2020/12/05 06:25:14;;;;;;;15.77;13.43;;;7.30;1.00;;;;;;5069001;28;20301;-60
2020/12/05 06:28:03;;;;;;;15.80;12.30;;;7.20;1.00;;;;;;5071270;28;20196;-60
2020/12/05 06:30:29;;;;;;;16.67;12.45;;;7.20;1.00;;;;;;5055911;28;20186;-60
2020/12/05 06:32:57;;;;;;;19.43;12.90;;;7.20;1.00;;;;;;5058851;28;20657;-60
2020/12/05 06:35:22;;;;;;;15.70;12.65;;;7.20;1.00;;;;;;5069931;28;20438;-61
2020/12/05 06:37:55;;;;;;;16.03;11.83;;;7.20;1.00;;;;;;5069395;28;20472;-59
2020/12/05 06:40:22;;;;;;;16.48;12.23;;;7.20;1.00;;;;;;5070089;28;20220;-60
2020/12/05 06:42:51;;;;;;;15.80;12.32;;;7.20;1.00;;;;;;5062440;28;20195;-57
2020/12/05 06:45:26;;;;;;;15.32;12.00;;;7.20;1.00;;;;;;5066856;28;20228;-60
2020/12/05 06:48:11;;;;;;;15.68;11.85;;;7.20;1.00;;;;;;5062534;28;20185;-60
2020/12/05 06:50:39;;;;;;;13.90;11.45;;;7.20;1.00;;;;;;5059243;28;20200;-61
2020/12/05 06:53:29;;;;;;;16.77;11.60;;;7.20;1.00;;;;;;5065152;28;20185;-61
2020/12/05 06:55:54;;;;;;;16.48;11.93;;;7.30;1.00;;;;;;5055960;28;20214;-62
2020/12/05 06:58:31;;;;;;;13.67;10.90;;;7.30;1.00;;;;;;5067965;28;20664;-61
2020/12/05 07:00:58;;;;;;;13.80;10.95;;;7.30;1.00;;;;;;5065873;28;20508;-61
2020/12/05 07:03:29;;;;;;;13.23;10.15;;;7.40;1.00;;;;;;5062798;28;20212;-60
2020/12/05 07:05:56;;;;;;;16.40;11.55;;;7.40;1.00;;;;;;5070258;28;20193;-59
2020/12/05 07:08:27;;;;;;;15.43;11.60;;;7.40;1.00;;;;;;5063541;28;20619;-60
2020/12/05 07:10:58;;;;;;;14.15;11.52;;;7.40;1.00;;;;;;5071574;28;20169;-58
2020/12/05 07:13:24;;;;;;;15.07;11.75;;;7.40;1.00;;;;;;5053182;28;20199;-60
2020/12/05 07:15:50;;;;;;;16.53;12.90;;;7.40;1.00;;;;;;5068062;28;20243;-61
2020/12/05 07:18:25;;;;;;;15.43;11.88;;;7.50;1.00;;;;;;5065704;28;20281;-60
2020/12/05 07:20:51;;;;;;;16.08;12.00;;;7.50;1.00;;;;;;5071590;28;20562;-61
2020/12/05 07:23:16;;;;;;;16.20;12.10;;;7.50;1.00;;;;;;5054044;28;20277;-61
2020/12/05 07:25:42;;;;;;;16.80;12.07;;;7.50;1.00;;;;;;5057227;28;20465;-61
2020/12/05 07:28:08;;;;;;;17.77;12.30;;;7.50;1.00;;;;;;5051575;28;20249;-61
2020/12/05 07:30:34;;;;;;;15.03;12.07;;;7.50;1.00;;;;;;5058082;28;20864;-60
2020/12/05 07:33:00;;;;;;;15.23;11.60;;;7.50;1.00;;;;;;5046650;28;20194;-61
2020/12/05 07:35:25;;;;;;;16.13;12.27;;;7.50;1.00;;;;;;5048409;28;20185;-61
2020/12/05 07:37:51;;;;;;;16.60;12.10;;;7.60;1.00;;;;;;5054523;28;20223;-61
2020/12/05 07:40:26;;;;;;;15.70;12.20;;;7.60;1.00;;;;;;5055756;28;20230;-61
2020/12/05 07:42:52;;;;;;;16.80;11.75;;;7.60;1.00;;;;;;5050145;28;20285;-61
2020/12/05 07:45:18;;;;;;;14.65;11.55;;;7.70;1.00;;;;;;5049291;28;20961;-61
2020/12/05 07:47:44;;;;;;;15.03;11.77;;;7.70;1.00;;;;;;5050855;28;20175;-61
2020/12/05 07:50:10;;;;;;;14.40;11.53;;;7.80;1.00;;;;;;5060652;28;20489;-61
2020/12/05 07:52:38;;;;;;;15.52;12.57;;;7.90;1.00;;;;;;5055293;28;20723;-61
2020/12/05 07:55:06;;;;;;;15.70;11.73;;;8.00;1.00;;;;;;5055701;28;20179;-61
2020/12/05 07:57:34;;;;;;;17.60;11.80;;;8.20;1.00;;;;;;5049953;28;20875;-61
2020/12/05 08:00:12;;;;;;;14.48;10.95;;;8.30;1.00;;;;;;5061740;28;20550;-61
2020/12/05 08:03:09;;;;;;;13.80;10.23;;;8.40;99.90;;;;;;5048547;28;20188;-61
2020/12/05 08:05:52;;;;;;;15.20;11.70;;;8.60;99.90;;;;;;5055740;28;20461;-59
2020/12/05 08:08:18;;;;;;;15.67;11.83;;;8.80;79.10;;;;;;5050693;28;20470;-61
2020/12/05 08:10:45;;;;;;;16.80;12.20;;;8.90;1.00;;;;;;5052460;28;20853;-61
2020/12/05 08:13:24;;;;;;;15.10;11.60;;;9.20;99.90;;;;;;5044771;28;20207;-61
2020/12/05 08:16:10;;;;;;;14.43;11.17;;;9.40;1.00;;;;;;5047092;28;20434;-60
2020/12/05 08:18:37;;;;;;;13.77;11.47;;;9.60;49.70;;;;;;5050789;28;20467;-60
2020/12/05 08:21:05;;;;;;;14.40;11.83;;;9.70;99.90;;;;;;5046743;28;20419;-60
2020/12/05 08:23:33;;;;;;;14.87;12.80;;;9.80;99.90;;;;;;5047146;28;20454;-60
2020/12/05 08:26:01;;;;;;;15.60;12.47;;;9.90;1.00;;;;;;5052325;28;20467;-60
2020/12/05 08:28:30;;;;;;;14.00;11.37;;;10.10;99.90;;;;;;5053953;28;20442;-60
2020/12/05 08:31:01;;;;;;;14.27;11.37;;;10.40;99.90;;;;;;5049490;28;20875;-60
2020/12/05 08:33:27;;;;;;;13.70;11.47;;;10.60;99.90;;;;;;5050144;28;20429;-60
2020/12/05 08:35:53;;;;;;;15.20;12.67;;;10.90;99.90;;;;;;5046795;28;21362;-60
2020/12/05 08:38:24;;;;;;;13.70;11.70;;;11.20;59.90;;;;;;5046584;28;20181;-60
2020/12/05 08:41:03;;;;;;;14.80;12.30;;;11.60;99.90;;;;;;5039178;28;20697;-60
2020/12/05 08:43:29;;;;;;;14.47;12.60;;;11.40;99.90;;;;;;5048756;28;20432;-60
2020/12/05 08:45:54;;;;;;;13.60;12.00;;;11.00;1.00;;;;;;5061769;28;20956;-61
2020/12/05 08:48:20;;;;;;;14.07;12.67;;;11.10;1.00;;;;;;5056554;28;20185;-61
2020/12/05 08:50:47;;;;;;;13.60;12.10;;;11.10;1.00;;;;;;5062742;28;20515;-61
2020/12/05 08:53:14;;;;;;;14.20;12.70;;;11.10;1.00;;;;;;5062246;28;20436;-61
2020/12/05 08:55:46;;;;;;;14.87;12.23;;;11.00;1.00;;;;;;5060932;28;20452;-61
2020/12/05 08:58:12;;;;;;;14.80;12.53;;;11.10;1.00;;;;;;5054472;28;20441;-61
2020/12/05 09:00:38;;;;;;;13.10;11.40;;;11.40;1.00;;;;;;5057138;28;20771;-61
2020/12/05 09:03:25;;;;;;;12.93;11.53;;;11.70;99.90;;;;;;5057282;28;20785;-61
2020/12/05 09:05:51;;;;;;;12.77;11.43;;;11.90;99.90;;;;;;5067397;28;20509;-61
2020/12/05 09:08:19;;;;;;;13.50;11.40;;;11.70;99.90;;;;;;5068829;28;20461;-60
2020/12/05 09:10:45;;;;;;;12.80;11.50;;;11.60;99.90;;;;;;5063395;28;20437;-60
2020/12/05 09:13:11;;;;;;;12.13;10.33;;;11.50;99.90;;;;;;5064904;28;20452;-60
2020/12/05 09:15:37;;;;;;;11.40;10.00;;;11.40;90.20;;;;;;5056281;28;20535;-60
2020/12/05 09:18:03;;;;;;;11.40;10.07;;;11.20;99.90;;;;;;5063919;28;20960;-60
2020/12/05 09:20:29;;;;;;;11.10;9.70;;;11.10;99.90;;;;;;5053199;28;20184;-60
2020/12/05 09:22:56;;;;;;;10.07;8.70;;;11.20;99.90;;;;;;5067408;28;21136;-60
2020/12/05 09:25:32;;;;;;;12.83;10.80;;;11.10;99.90;;;;;;5067734;28;20455;-61
2020/12/05 09:27:59;;;;;;;10.83;9.73;;;11.10;99.90;;;;;;5065926;28;20438;-61
2020/12/05 09:30:28;;;;;;;12.53;10.57;;;11.20;99.90;;;;;;5064824;28;20493;-60
2020/12/05 09:32:54;;;;;;;12.63;10.30;;;11.30;99.90;;;;;;5049266;28;20403;-61
2020/12/05 09:35:22;;;;;;;12.73;10.40;;;11.50;92.00;;;;;;5052504;28;20420;-61
2020/12/05 09:37:48;;;;;;;10.77;9.67;;;11.70;40.20;;;;;;5071566;28;20523;-61
2020/12/05 09:40:17;;;;;;;10.87;9.30;;;11.90;1.00;;;;;;5063621;28;20570;-60
2020/12/05 09:42:44;;;;;;;10.77;9.67;;;12.40;1.00;;;;;;5065597;28;20431;-57
2020/12/05 09:45:11;;;;;;;10.63;9.17;;;12.90;1.00;;;;;;5058359;28;20810;-56
2020/12/05 09:47:37;;;;;;;9.90;8.87;;;13.50;1.00;;;;;;5073569;28;20923;-56
2020/12/05 09:50:05;;;;;;;9.87;8.83;;;14.00;1.00;;;;;;5078767;28;20932;-59
2020/12/05 09:52:31;;;;;;;9.70;8.47;;;14.40;99.90;;;;;;5090136;28;20414;-60
2020/12/05 09:54:57;;;;;;;8.83;7.93;;;14.80;99.90;;;;;;5077340;28;20513;-61
2020/12/05 09:57:23;;;;;;;8.97;8.07;;;15.20;99.90;;;;;;5074562;28;20564;-60
2020/12/05 09:59:48;;;;;;;9.97;8.97;;;15.60;99.90;;;;;;5071077;28;20684;-61
2020/12/05 10:02:14;;;;;;;8.20;7.40;;;15.60;99.90;;;;;;5079046;28;20521;-60
2020/12/05 10:04:39;;;;;;;9.57;8.57;;;15.30;99.90;;;;;;5071446;28;20694;-60
2020/12/05 10:07:06;;;;;;;11.23;8.57;;;15.30;99.90;;;;;;5081331;28;20304;-61
2020/12/05 10:09:32;;;;;;;9.23;8.37;;;15.60;99.90;;;;;;5072996;28;20646;-60
2020/12/05 10:11:58;;;;;;;10.83;9.07;;;15.50;99.90;;;;;;5080242;28;20422;-59
2020/12/05 10:14:23;;;;;;;9.40;8.60;;;14.50;99.90;;;;;;5061857;28;20288;-59
2020/12/05 10:16:49;;;;;;;9.57;8.57;;;14.00;99.90;;;;;;5055195;28;20204;-60
2020/12/05 10:19:15;;;;;;;10.50;9.43;;;13.60;99.90;;;;;;5062757;28;20188;-59
2020/12/05 10:21:44;;;;;;;10.13;9.13;;;13.50;99.90;;;;;;5069763;28;20582;-60
2020/12/05 10:24:09;;;;;;;10.07;9.03;;;13.30;99.90;;;;;;5060949;28;20197;-60
2020/12/05 10:26:35;;;;;;;9.77;8.77;;;13.20;99.90;;;;;;5056640;28;20820;-60
2020/12/05 10:29:01;;;;;;;10.90;9.80;;;13.20;99.90;;;;;;5066558;28;20203;-59
2020/12/05 10:31:26;;;;;;;11.07;9.97;;;13.50;99.90;;;;;;5081215;28;20175;-59
2020/12/05 10:33:52;;;;;;;13.77;11.60;;;14.00;99.90;;;;;;5070076;28;20183;-58
2020/12/05 10:36:19;;;;;;;11.50;10.00;;;14.10;99.90;;;;;;5074743;28;20184;-59
2020/12/05 10:38:45;;;;;;;13.57;11.37;;;13.80;99.90;;;;;;5065312;28;20265;-58
2020/12/05 10:41:14;;;;;;;13.87;10.93;;;13.30;99.90;;;;;;5060122;28;20611;-58
2020/12/05 10:43:40;;;;;;;12.27;10.97;;;13.00;99.90;;;;;;5061911;28;20185;-57
2020/12/05 10:46:06;;;;;;;12.60;11.10;;;12.70;99.90;;;;;;5064325;28;20467;-57
2020/12/05 10:48:32;;;;;;;11.63;10.53;;;12.40;1.00;;;;;;5070636;28;20488;-57
2020/12/05 10:50:58;;;;;;;13.80;11.80;;;12.00;1.00;;;;;;5060424;28;20215;-57
2020/12/05 10:53:24;;;;;;;14.00;10.73;;;11.70;1.00;;;;;;5067353;28;20206;-57
2020/12/05 10:55:50;;;;;;;12.17;10.80;;;11.50;1.00;;;;;;5071022;28;20412;-57
2020/12/05 10:58:15;;;;;;;13.70;12.17;;;11.40;1.00;;;;;;5060751;28;20938;-54
2020/12/05 11:00:41;;;;;;;13.43;12.03;;;11.30;18.00;;;;;;5069808;28;20673;-55
2020/12/05 11:03:07;;;;;;;13.60;12.07;;;11.20;94.50;;;;;;5066642;28;20181;-56
2020/12/05 11:05:32;;;;;;;13.60;12.20;;;11.10;99.90;;;;;;5067159;28;20294;-56
2020/12/05 11:07:58;;;;;;;16.13;12.93;;;11.00;99.90;;;;;;5064853;28;20190;-51
2020/12/05 11:10:23;;;;;;;15.63;12.87;;;11.00;99.90;;;;;;5059774;28;20189;-54
2020/12/05 11:12:49;;;;;;;14.47;12.40;;;11.00;99.90;;;;;;5070046;28;20216;-55
2020/12/05 11:15:14;;;;;;;14.70;12.97;;;11.00;99.90;;;;;;5065130;28;20532;-55
2020/12/05 11:17:40;;;;;;;14.27;12.80;;;10.90;1.00;;;;;;5067391;28;20197;-55
2020/12/05 11:20:06;;;;;;;13.83;12.13;;;10.80;1.00;;;;;;5060704;28;20189;-55
2020/12/05 11:22:31;;;;;;;14.63;13.03;;;10.60;1.00;;;;;;5066831;28;20676;-55
2020/12/05 11:24:57;;;;;;;15.60;12.63;;;10.50;99.90;;;;;;5070219;28;20205;-54
2020/12/05 11:27:22;;;;;;;15.30;13.40;;;10.50;99.90;;;;;;5065340;28;20255;-54
2020/12/05 11:29:48;;;;;;;16.37;13.77;;;10.40;1.00;;;;;;5058869;28;20177;-51
2020/12/05 11:32:14;;;;;;;16.03;13.60;;;10.30;1.00;;;;;;5051382;28;20213;-57
2020/12/05 11:34:39;;;;;;;18.30;14.90;;;10.10;99.90;;;;;;5055755;28;20177;-58
2020/12/05 11:37:05;;;;;;;17.73;13.70;;;10.10;1.00;;;;;;5062070;28;20170;-57
2020/12/05 11:39:30;;;;;;;16.70;13.87;;;10.00;99.90;;;;;;5055782;28;20186;-56
2020/12/05 11:41:56;;;;;;;15.77;13.67;;;10.00;99.90;;;;;;5067704;28;20686;-57
2020/12/05 11:44:22;;;;;;;15.13;12.57;;;10.00;99.90;;;;;;5069157;28;20178;-53
2020/12/05 11:46:49;;;;;;;17.87;14.67;;;10.10;3.80;;;;;;5069778;28;20251;-55
2020/12/05 11:49:16;;;;;;;18.10;13.53;;;10.10;1.00;;;;;;5068025;28;20184;-54
2020/12/05 11:51:41;;;;;;;16.90;13.70;;;10.10;1.00;;;;;;5056311;28;20432;-58
2020/12/05 11:54:07;;;;;;;16.73;13.47;;;10.10;1.00;;;;;;5070849;28;20412;-50
2020/12/05 11:56:33;;;;;;;16.50;12.80;;;10.10;1.00;;;;;;5059123;28;20190;-54
2020/12/05 11:58:58;;;;;;;18.47;14.00;;;10.10;1.00;;;;;;5064397;28;20480;-55
2020/12/05 12:01:24;;;;;;;17.53;13.40;;;10.10;24.40;;;;;;5052492;28;20197;-55
2020/12/05 12:03:50;;;;;;;17.67;13.53;;;10.20;9.30;;;;;;5061134;28;20215;-57
2020/12/05 12:06:19;;;;;;;16.57;13.37;;;10.20;27.20;;;;;;5063172;28;20205;-54
2020/12/05 12:08:45;;;;;;;15.50;13.43;;;10.20;1.00;;;;;;5067541;28;20182;-55
2020/12/05 12:11:19;;;;;;;15.77;13.00;;;10.20;1.00;;;;;;5063189;28;20431;-55
2020/12/05 12:13:47;;;;;;;15.37;12.90;;;10.30;1.00;;;;;;5064100;28;20933;-54
2020/12/05 12:16:15;;;;;;;20.17;13.40;;;10.30;1.00;;;;;;5062946;28;20463;-55
2020/12/05 12:18:40;;;;;;;20.13;14.60;;;10.30;4.00;;;;;;5067060;28;20465;-57
2020/12/05 12:21:07;;;;;;;17.80;14.50;;;10.20;99.90;;;;;;5061829;28;20435;-53
2020/12/05 12:23:32;;;;;;;16.33;13.33;;;10.20;99.90;;;;;;5065769;28;20204;-53
2020/12/05 12:25:58;;;;;;;18.80;14.80;;;10.20;99.90;;;;;;5065121;28;21114;-60
2020/12/05 12:28:24;;;;;;;17.30;14.00;;;10.20;1.00;;;;;;5067924;28;20510;-58
2020/12/05 12:30:50;;;;;;;17.80;13.40;;;10.10;99.90;;;;;;5065513;28;20773;-60
2020/12/05 12:33:15;;;;;;;16.03;13.17;;;10.10;1.00;;;;;;5056324;28;20428;-59
2020/12/05 12:35:44;;;;;;;16.27;13.37;;;10.10;1.00;;;;;;5051672;28;20236;-62
2020/12/05 12:38:09;;;;;;;18.53;14.30;;;10.10;99.90;;;;;;5065768;28;20247;-60
2020/12/05 12:40:35;;;;;;;15.50;13.33;;;10.10;1.00;;;;;;5068941;28;20466;-59
2020/12/05 12:43:00;;;;;;;17.40;13.90;;;10.10;99.90;;;;;;5057664;28;20193;-60
2020/12/05 12:45:31;;;;;;;18.50;15.17;;;10.10;1.00;;;;;;5068633;28;20679;-60
2020/12/05 12:50:25;;;;;;;14.93;12.87;;;10.70;99.90;;;;;;5068020;28;20430;-61